createdAt,value
2019-06-27T00:00:43.947Z,102513.58
2019-06-27T00:03:12.944Z,102512.75
2019-06-27T00:05:41.829Z,102513.58
2019-06-27T00:08:10.673Z,102511.21
2019-06-27T00:10:39.422Z,102511.66
2019-06-27T00:13:08.216Z,102516.84
2019-06-27T00:15:37.013Z,102512.39
2019-06-27T00:18:05.845Z,102508.66
2019-06-27T00:20:34.691Z,102515.09
2019-06-27T00:23:03.589Z,102514.32
2019-06-27T00:25:32.357Z,102513.22
2019-06-27T00:28:01.033Z,102508.06
2019-06-27T00:30:29.882Z,102508.92
2019-06-27T00:32:58.745Z,102508.36
2019-06-27T00:35:27.475Z,102520.58
2019-06-27T00:37:56.377Z,102516.78
2019-06-27T00:40:25.221Z,102518.65
2019-06-27T00:42:54.014Z,102488.77
2019-06-27T00:45:22.906Z,102524.45
2019-06-27T00:47:51.751Z,102525.17
2019-06-27T00:50:20.618Z,102523.94
2019-06-27T00:52:49.407Z,102529.92
2019-06-27T00:55:18.166Z,102532.66
2019-06-27T00:57:46.932Z,102532.92
2019-06-27T01:00:16.617Z,102519.58
2019-06-27T01:02:45.538Z,102525.30
2019-06-27T01:05:14.587Z,102521.86
2019-06-27T01:07:43.361Z,102522.20
2019-06-27T01:10:12.826Z,102524.25
2019-06-27T01:12:41.604Z,102523.72
2019-06-27T01:15:10.458Z,102524.86
2019-06-27T01:17:39.501Z,102524.75
2019-06-27T01:20:08.698Z,102527.17
2019-06-27T01:22:37.536Z,102527.70
2019-06-27T01:25:08.713Z,102526.56
2019-06-27T01:27:37.459Z,102518.98
2019-06-27T01:30:10.729Z,102524.11
2019-06-27T01:32:39.519Z,102522.48
2019-06-27T01:35:08.708Z,102520.88
2019-06-27T01:37:37.571Z,102520.39
2019-06-27T01:40:08.611Z,102524.40
2019-06-27T01:42:37.578Z,102521.94
2019-06-27T01:45:09.369Z,102526.02
2019-06-27T01:47:38.259Z,102525.23
2019-06-27T01:50:08.970Z,102520.91
2019-06-27T01:52:37.712Z,102526.83
2019-06-27T01:55:07.835Z,102526.30
2019-06-27T01:57:46.084Z,102529.36
2019-06-27T02:00:10.083Z,102530.34
2019-06-27T02:02:39.163Z,102529.32
2019-06-27T02:05:08.797Z,102527.70
2019-06-27T02:07:37.837Z,102525.77
2019-06-27T02:10:09.007Z,102539.01
2019-06-27T02:12:37.919Z,102528.75
2019-06-27T02:15:11.216Z,102536.14
2019-06-27T02:17:40.025Z,102538.96
2019-06-27T02:20:11.469Z,102540.02
2019-06-27T02:22:40.199Z,102533.39
2019-06-27T02:25:10.043Z,102539.09
2019-06-27T02:27:38.829Z,102539.80
2019-06-27T02:30:08.430Z,102547.92
2019-06-27T02:32:37.169Z,102545.45
2019-06-27T02:35:08.146Z,102537.86
2019-06-27T02:37:37.109Z,102547.16
2019-06-27T02:40:07.199Z,102542.95
2019-06-27T02:42:36.119Z,102544.84
2019-06-27T02:45:06.916Z,102546.53
2019-06-27T02:47:35.721Z,102561.73
2019-06-27T02:50:07.396Z,102550.96
2019-06-27T02:52:36.208Z,102557.24
2019-06-27T02:55:07.253Z,102550.16
2019-06-27T02:57:35.981Z,102550.48
2019-06-27T03:00:07.330Z,102552.68
2019-06-27T03:02:37.923Z,102559.95
2019-06-27T03:05:09.400Z,102557.70
2019-06-27T03:07:38.395Z,102561.11
2019-06-27T03:10:11.466Z,102563.35
2019-06-27T03:12:40.237Z,102561.11
2019-06-27T03:15:10.717Z,102563.11
2019-06-27T03:17:39.651Z,102558.50
2019-06-27T03:20:09.609Z,102560.81
2019-06-27T03:22:38.344Z,102558.43
2019-06-27T03:25:07.380Z,102563.76
2019-06-27T03:27:36.404Z,102567.26
2019-06-27T03:30:07.512Z,102570.41
2019-06-27T03:32:36.440Z,102585.79
2019-06-27T03:35:06.325Z,102572.70
2019-06-27T03:37:35.206Z,102591.70
2019-06-27T03:40:06.836Z,102581.40
2019-06-27T03:42:35.657Z,102586.01
2019-06-27T03:45:15.325Z,102582.23
2019-06-27T03:47:41.352Z,102565.44
2019-06-27T03:50:10.766Z,102583.45
2019-06-27T03:52:39.536Z,102591.92
2019-06-27T03:55:08.468Z,102591.09
2019-06-27T03:57:37.273Z,102587.90
2019-06-27T04:00:07.763Z,102587.48
2019-06-27T04:02:36.559Z,102589.15
2019-06-27T04:05:07.480Z,102587.01
2019-06-27T04:07:36.246Z,102588.52
2019-06-27T04:10:05.515Z,102587.27
2019-06-27T04:12:34.346Z,102588.04
2019-06-27T04:15:03.351Z,102590.09
2019-06-27T04:17:33.202Z,102591.77
2019-06-27T04:20:01.953Z,102591.12
2019-06-27T04:22:30.898Z,102587.98
2019-06-27T04:24:59.651Z,102591.39
2019-06-27T04:27:28.547Z,102592.77
2019-06-27T04:29:57.424Z,102597.86
2019-06-27T04:32:26.268Z,102589.80
2019-06-27T04:34:54.996Z,102585.97
2019-06-27T04:37:23.821Z,102593.47
2019-06-27T04:39:52.616Z,102589.08
2019-06-27T04:42:21.361Z,102597.67
2019-06-27T04:44:50.113Z,102597.04
2019-06-27T04:47:18.948Z,102597.19
2019-06-27T04:49:47.703Z,102593.78
2019-06-27T04:52:16.602Z,102602.94
2019-06-27T04:54:45.374Z,102600.20
2019-06-27T04:57:14.162Z,102604.30
2019-06-27T04:59:53.523Z,102603.98
2019-06-27T05:02:13.561Z,102602.33
2019-06-27T05:04:42.337Z,102607.91
2019-06-27T05:07:11.173Z,102608.00
2019-06-27T05:09:39.972Z,102604.33
2019-06-27T05:12:08.873Z,102561.31
2019-06-27T05:14:37.683Z,102610.65
2019-06-27T05:17:06.663Z,102601.60
2019-06-27T05:19:35.410Z,102608.63
2019-06-27T05:22:05.154Z,102606.24
2019-06-27T05:24:33.957Z,102610.03
2019-06-27T05:27:02.726Z,102608.27
2019-06-27T05:29:34.694Z,102605.44
2019-06-27T05:32:04.325Z,102614.23
2019-06-27T05:34:33.050Z,102619.55
2019-06-27T05:37:01.757Z,102618.41
2019-06-27T05:39:30.484Z,102619.64
2019-06-27T05:41:59.210Z,102617.66
2019-06-27T05:44:27.887Z,102623.66
2019-06-27T05:46:56.627Z,102623.61
2019-06-27T05:49:25.402Z,102630.20
2019-06-27T05:51:54.174Z,102629.56
2019-06-27T05:54:23.677Z,102626.77
2019-06-27T05:56:52.636Z,102622.59
2019-06-27T05:59:22.679Z,102625.34
2019-06-27T06:01:51.966Z,102626.31
2019-06-27T06:04:23.988Z,102563.83
2019-06-27T06:06:54.092Z,102621.28
2019-06-27T06:09:22.913Z,102617.33
2019-06-27T06:11:51.809Z,102622.54
2019-06-27T06:14:20.711Z,102623.17
2019-06-27T06:16:49.504Z,102618.70
2019-06-27T06:19:18.423Z,102619.75
2019-06-27T06:21:47.317Z,102622.33
2019-06-27T06:24:16.169Z,102618.42
2019-06-27T06:26:44.973Z,102613.51
2019-06-27T06:29:13.632Z,102622.03
2019-06-27T06:31:44.445Z,102625.31
2019-06-27T06:34:13.005Z,102625.38
2019-06-27T06:36:41.861Z,102622.61
2019-06-27T06:39:10.618Z,102626.41
2019-06-27T06:41:39.386Z,102628.00
2019-06-27T06:44:08.509Z,102628.58
2019-06-27T06:46:37.346Z,102630.84
2019-06-27T06:49:06.115Z,102628.06
2019-06-27T06:51:34.890Z,102631.95
2019-06-27T06:54:03.651Z,102633.11
2019-06-27T06:56:32.450Z,102640.98
2019-06-27T06:59:01.369Z,102642.47
2019-06-27T07:01:30.130Z,102640.77
2019-06-27T07:03:58.976Z,102647.67
2019-06-27T07:06:27.889Z,102647.67
2019-06-27T07:08:56.771Z,102644.69
2019-06-27T07:11:25.846Z,102649.16
2019-06-27T07:13:54.933Z,102649.66
2019-06-27T07:16:24.009Z,102646.73
2019-06-27T07:18:52.849Z,102650.84
2019-06-27T07:21:21.857Z,102647.59
2019-06-27T07:23:50.682Z,102645.91
2019-06-27T07:26:23.077Z,102646.16
2019-06-27T07:28:53.374Z,102651.79
2019-06-27T07:31:22.243Z,102644.88
2019-06-27T07:33:50.999Z,102649.03
2019-06-27T07:36:19.779Z,102655.01
2019-06-27T07:38:48.640Z,102650.29
2019-06-27T07:41:17.433Z,102644.88
2019-06-27T07:43:46.189Z,102649.68
2019-06-27T07:46:25.289Z,102650.39
2019-06-27T07:48:45.871Z,102648.98
2019-06-27T07:51:14.889Z,102645.39
2019-06-27T07:53:43.943Z,102641.22
2019-06-27T07:56:12.996Z,102636.59
2019-06-27T07:58:41.747Z,102643.74
2019-06-27T08:01:10.555Z,102639.70
2019-06-27T08:03:39.335Z,102638.73
2019-06-27T08:06:08.112Z,102641.88
2019-06-27T08:08:37.040Z,102642.47
2019-06-27T08:11:05.858Z,102646.97
2019-06-27T08:13:35.642Z,102643.89
2019-06-27T08:16:04.459Z,102635.16
2019-06-27T08:18:34.091Z,102634.67
2019-06-27T08:21:03.712Z,102630.07
2019-06-27T08:23:41.464Z,102632.26
2019-06-27T08:26:06.504Z,102623.32
2019-06-27T08:28:36.255Z,102617.02
2019-06-27T08:31:06.230Z,102628.56
2019-06-27T08:33:35.645Z,102620.04
2019-06-27T08:36:07.090Z,102599.47
2019-06-27T08:38:36.957Z,102629.59
2019-06-27T08:41:05.779Z,102629.64
2019-06-27T08:43:34.638Z,102624.24
2019-06-27T08:46:03.393Z,102626.73
2019-06-27T08:48:32.127Z,102627.23
2019-06-27T08:51:00.926Z,102625.70
2019-06-27T08:53:29.887Z,102629.24
2019-06-27T08:55:58.775Z,102627.06
2019-06-27T08:58:27.596Z,102626.64
2019-06-27T09:00:56.434Z,102628.20
2019-06-27T09:03:25.444Z,102633.19
2019-06-27T09:05:54.299Z,102622.54
2019-06-27T09:08:23.083Z,102628.21
2019-06-27T09:10:51.871Z,102628.47
2019-06-27T09:13:20.621Z,102632.72
2019-06-27T09:15:49.574Z,102629.67
2019-06-27T09:18:18.322Z,102629.59
2019-06-27T09:20:47.148Z,102630.03
2019-06-27T09:23:16.147Z,102629.08
2019-06-27T09:25:44.956Z,102624.82
2019-06-27T09:28:13.785Z,102626.00
2019-06-27T09:30:42.582Z,102618.45
2019-06-27T09:33:11.458Z,102628.30
2019-06-27T09:35:40.220Z,102622.78
2019-06-27T09:38:09.068Z,102625.76
2019-06-27T09:40:39.471Z,102627.58
2019-06-27T09:43:08.279Z,102627.08
2019-06-27T09:45:38.050Z,102621.11
2019-06-27T09:48:07.027Z,102628.28
2019-06-27T09:50:35.853Z,102569.94
2019-06-27T09:53:06.298Z,102627.28
2019-06-27T09:55:37.572Z,102607.95
2019-06-27T09:58:07.410Z,102613.38
2019-06-27T10:00:36.267Z,102615.59
2019-06-27T10:03:08.084Z,102623.30
2019-06-27T10:05:36.970Z,102613.66
2019-06-27T10:08:06.417Z,102616.14
2019-06-27T10:10:35.173Z,102613.63
2019-06-27T10:13:04.118Z,102616.58
2019-06-27T10:15:32.913Z,102616.58
2019-06-27T10:18:02.807Z,102618.58
2019-06-27T10:20:32.252Z,102617.13
2019-06-27T10:23:01.164Z,102622.14
2019-06-27T10:25:30.066Z,102625.11
2019-06-27T10:27:58.816Z,102620.33
2019-06-27T10:30:27.809Z,102625.69
2019-06-27T10:33:00.172Z,102617.39
2019-06-27T10:35:28.416Z,102616.94
2019-06-27T10:37:57.154Z,102610.84
2019-06-27T10:40:25.992Z,102612.45
2019-06-27T10:42:54.751Z,102612.14
2019-06-27T10:45:23.488Z,102612.79
2019-06-27T10:47:53.741Z,102606.67
2019-06-27T10:50:22.550Z,102607.53
2019-06-27T10:52:51.321Z,102611.16
2019-06-27T10:55:22.275Z,102602.41
2019-06-27T10:57:51.284Z,102602.72
2019-06-27T11:00:20.892Z,102603.99
2019-06-27T11:02:49.691Z,102608.30
2019-06-27T11:05:18.569Z,102606.24
2019-06-27T11:07:47.464Z,102611.62
2019-06-27T11:10:16.933Z,102612.82
2019-06-27T11:12:45.711Z,102615.63
2019-06-27T11:15:15.301Z,102613.30
2019-06-27T11:17:44.155Z,102605.34
2019-06-27T11:20:15.467Z,102603.20
2019-06-27T11:22:47.494Z,102610.94
2019-06-27T11:25:16.400Z,102601.37
2019-06-27T11:27:45.267Z,102601.03
2019-06-27T11:30:15.958Z,102600.72
2019-06-27T11:32:48.108Z,102601.41
2019-06-27T11:35:17.512Z,102592.03
2019-06-27T11:37:46.971Z,102593.17
2019-06-27T11:40:23.274Z,102592.22
2019-06-27T11:42:54.217Z,102593.55
2019-06-27T11:45:23.008Z,102594.54
2019-06-27T11:47:54.596Z,102587.48
2019-06-27T11:50:23.383Z,102581.80
2019-06-27T11:52:52.220Z,102578.33
2019-06-27T11:55:26.384Z,102573.25
2019-06-27T11:57:56.754Z,102577.08
2019-06-27T12:00:25.973Z,102582.77
2019-06-27T12:02:54.863Z,102573.42
2019-06-27T12:05:23.674Z,102581.35
2019-06-27T12:07:52.660Z,102588.21
2019-06-27T12:10:21.971Z,102586.19
2019-06-27T12:12:51.443Z,102582.43
2019-06-27T12:15:20.249Z,102578.30
2019-06-27T12:17:49.155Z,102578.03
2019-06-27T12:20:19.057Z,102564.85
2019-06-27T12:22:47.854Z,102570.89
2019-06-27T12:25:17.895Z,102579.00
2019-06-27T12:27:46.659Z,102571.92
2019-06-27T12:30:15.940Z,102578.89
2019-06-27T12:32:51.861Z,102575.34
2019-06-27T12:35:15.288Z,102570.43
2019-06-27T12:37:44.034Z,102571.95
2019-06-27T12:40:13.957Z,102564.20
2019-06-27T12:42:42.745Z,102565.84
2019-06-27T12:45:11.860Z,102564.08
2019-06-27T12:47:40.756Z,102563.18
2019-06-27T12:50:10.354Z,102563.53
2019-06-27T12:52:39.161Z,102553.94
2019-06-27T12:55:08.084Z,102534.87
2019-06-27T12:57:38.430Z,102549.06
2019-06-27T13:00:10.191Z,102549.36
2019-06-27T13:02:39.003Z,102547.03
2019-06-27T13:05:07.964Z,102545.09
2019-06-27T13:07:36.764Z,102550.52
2019-06-27T13:10:09.173Z,102548.28
2019-06-27T13:12:38.100Z,102549.30
2019-06-27T13:15:08.093Z,102535.42
2019-06-27T13:17:36.983Z,102538.28
2019-06-27T13:20:07.967Z,102538.27
2019-06-27T13:22:37.204Z,102536.62
2019-06-27T13:25:14.695Z,102531.26
2019-06-27T13:27:43.503Z,102524.25
2019-06-27T13:30:12.515Z,102521.48
2019-06-27T13:32:41.525Z,102520.02
2019-06-27T13:35:10.404Z,102518.37
2019-06-27T13:37:39.208Z,102517.23
2019-06-27T13:40:09.554Z,102517.33
2019-06-27T13:42:38.917Z,102511.97
2019-06-27T13:45:09.474Z,102505.00
2019-06-27T13:47:38.460Z,102508.95
2019-06-27T13:50:08.604Z,102512.45
2019-06-27T13:52:37.362Z,102511.11
2019-06-27T13:55:06.688Z,102509.69
2019-06-27T13:57:35.737Z,102510.05
2019-06-27T14:00:08.609Z,102509.03
2019-06-27T14:02:37.372Z,102506.22
2019-06-27T14:05:07.401Z,102507.40
2019-06-27T14:07:36.198Z,102511.14
2019-06-27T14:10:07.545Z,102507.50
2019-06-27T14:12:36.475Z,102502.62
2019-06-27T14:15:07.512Z,102499.20
2019-06-27T14:17:37.515Z,102506.89
2019-06-27T14:20:08.835Z,102507.03
2019-06-27T14:22:37.819Z,102503.58
2019-06-27T14:25:07.662Z,102504.37
2019-06-27T14:27:36.417Z,102500.02
2019-06-27T14:30:07.894Z,102499.94
2019-06-27T14:32:37.719Z,102474.28
2019-06-27T14:35:15.375Z,102502.73
2019-06-27T14:37:38.161Z,102499.91
2019-06-27T14:40:09.927Z,102492.20
2019-06-27T14:42:40.692Z,102497.89
2019-06-27T14:45:10.119Z,102497.89
2019-06-27T14:47:39.114Z,102487.56
2019-06-27T14:50:11.623Z,102496.83
2019-06-27T14:52:40.533Z,102491.56
2019-06-27T14:55:14.130Z,102496.12
2019-06-27T14:57:44.288Z,102494.48
2019-06-27T15:00:14.411Z,102490.13
2019-06-27T15:02:43.194Z,102499.98
2019-06-27T15:05:13.721Z,102499.48
2019-06-27T15:07:42.568Z,102490.84
2019-06-27T15:10:12.422Z,102499.56
2019-06-27T15:12:55.854Z,102498.05
2019-06-27T15:15:13.814Z,102495.33
2019-06-27T15:17:42.554Z,102501.69
2019-06-27T15:20:12.649Z,102492.12
2019-06-27T15:22:41.474Z,102493.50
2019-06-27T15:25:10.499Z,102485.06
2019-06-27T15:27:39.365Z,102494.02
2019-06-27T15:30:10.472Z,102489.68
2019-06-27T15:32:39.627Z,102489.19
2019-06-27T15:35:09.330Z,102489.84
2019-06-27T15:37:38.097Z,102477.67
2019-06-27T15:40:11.607Z,102473.84
2019-06-27T15:42:40.660Z,102481.33
2019-06-27T15:45:10.038Z,102481.33
2019-06-27T15:47:38.995Z,102479.28
2019-06-27T15:50:09.380Z,102474.65
2019-06-27T15:52:38.303Z,102479.78
2019-06-27T15:55:12.045Z,102474.84
2019-06-27T15:57:39.742Z,102467.03
2019-06-27T16:00:09.290Z,102465.80
2019-06-27T16:02:38.055Z,102461.13
2019-06-27T16:05:08.197Z,102470.37
2019-06-27T16:07:37.049Z,102462.62
2019-06-27T16:10:07.135Z,102460.02
2019-06-27T16:12:35.891Z,102470.66
2019-06-27T16:15:10.485Z,102464.58
2019-06-27T16:17:39.462Z,102404.77
2019-06-27T16:20:10.965Z,102454.91
2019-06-27T16:22:40.025Z,102453.58
2019-06-27T16:25:10.045Z,102447.66
2019-06-27T16:27:38.882Z,102445.02
2019-06-27T16:30:10.451Z,102444.24
2019-06-27T16:32:39.265Z,102443.03
2019-06-27T16:35:08.485Z,102443.77
2019-06-27T16:37:37.275Z,102446.19
2019-06-27T16:40:08.540Z,102438.28
2019-06-27T16:42:39.761Z,102444.13
2019-06-27T16:45:13.498Z,102436.95
2019-06-27T16:47:42.234Z,102439.44
2019-06-27T16:50:11.646Z,102448.08
2019-06-27T16:52:42.462Z,102452.77
2019-06-27T16:55:11.515Z,102449.51
2019-06-27T16:57:40.857Z,102449.24
2019-06-27T17:00:14.002Z,102451.45
2019-06-27T17:02:45.829Z,102456.94
2019-06-27T17:05:14.864Z,102451.95
2019-06-27T17:07:43.669Z,102453.94
2019-06-27T17:10:13.961Z,102451.47
2019-06-27T17:12:42.782Z,102451.22
2019-06-27T17:15:12.103Z,102455.62
2019-06-27T17:17:41.006Z,102463.34
2019-06-27T17:20:10.942Z,102463.34
2019-06-27T17:22:39.698Z,102459.22
2019-06-27T17:25:10.051Z,102304.10
2019-06-27T17:27:38.844Z,102461.41
2019-06-27T17:30:13.160Z,102465.53
2019-06-27T17:32:42.058Z,102463.86
2019-06-27T17:35:12.292Z,102469.37
2019-06-27T17:37:41.124Z,102472.09
2019-06-27T17:40:11.316Z,102468.83
2019-06-27T17:42:45.470Z,102469.38
2019-06-27T17:45:14.514Z,102466.33
2019-06-27T17:47:43.285Z,102466.88
2019-06-27T17:50:13.342Z,102471.74
2019-06-27T17:52:42.244Z,102478.05
2019-06-27T17:55:15.350Z,102475.28
2019-06-27T17:57:47.096Z,102482.13
2019-06-27T18:00:16.578Z,102480.42
2019-06-27T18:02:45.365Z,102483.87
2019-06-27T18:05:17.326Z,102478.38
2019-06-27T18:07:47.182Z,102480.24
2019-06-27T18:10:16.711Z,102481.08
2019-06-27T18:12:45.491Z,102485.91
2019-06-27T18:15:14.219Z,102490.02
2019-06-27T18:17:42.951Z,102490.52
2019-06-27T18:20:12.498Z,102492.75
2019-06-27T18:22:41.555Z,102486.55
2019-06-27T18:25:10.508Z,102481.61
2019-06-27T18:27:39.427Z,102483.89
2019-06-27T18:30:09.131Z,102482.89
2019-06-27T18:32:37.897Z,102484.23
2019-06-27T18:35:07.239Z,102486.03
2019-06-27T18:37:36.005Z,102475.78
2019-06-27T18:40:06.165Z,102483.97
2019-06-27T18:42:34.909Z,102492.70
2019-06-27T18:45:05.344Z,102485.77
2019-06-27T18:47:34.093Z,102475.33
2019-06-27T18:50:03.165Z,102485.70
2019-06-27T18:52:32.033Z,102477.36
2019-06-27T18:55:00.806Z,102483.87
2019-06-27T18:57:29.824Z,102478.48
2019-06-27T18:59:58.676Z,102469.70
2019-06-27T19:02:27.576Z,102468.89
2019-06-27T19:04:56.591Z,102476.52
2019-06-27T19:07:25.349Z,102472.05
2019-06-27T19:09:55.270Z,102466.61
2019-06-27T19:12:25.147Z,102471.56
2019-06-27T19:14:54.324Z,102469.99
2019-06-27T19:17:26.641Z,102472.12
2019-06-27T19:19:55.293Z,102472.61
2019-06-27T19:22:42.127Z,102467.72
2019-06-27T19:25:12.693Z,102471.58
2019-06-27T19:27:41.443Z,102474.63
2019-06-27T19:30:12.355Z,102473.61
2019-06-27T19:32:41.214Z,102465.38
2019-06-27T19:35:10.287Z,102470.59
2019-06-27T19:37:39.236Z,102482.04
2019-06-27T19:40:09.409Z,102471.81
2019-06-27T19:42:39.502Z,102475.58
2019-06-27T19:45:08.509Z,102470.59
2019-06-27T19:47:37.370Z,102466.20
2019-06-27T19:50:07.563Z,102467.86
2019-06-27T19:52:37.979Z,102471.94
2019-06-27T19:55:09.762Z,102477.13
2019-06-27T19:57:38.655Z,102471.62
2019-06-27T20:00:07.804Z,102471.25
2019-06-27T20:02:36.748Z,102471.61
2019-06-27T20:05:07.425Z,102481.98
2019-06-27T20:07:36.400Z,102477.55
2019-06-27T20:10:11.552Z,102482.84
2019-06-27T20:12:38.790Z,102483.38
2019-06-27T20:15:08.188Z,102486.70
2019-06-27T20:17:37.050Z,102491.53
2019-06-27T20:20:07.070Z,102489.52
2019-06-27T20:22:35.969Z,102474.73
2019-06-27T20:25:07.233Z,102473.81
2019-06-27T20:27:50.865Z,102477.47
2019-06-27T20:30:24.692Z,102479.39
2019-06-27T20:32:55.074Z,102477.53
2019-06-27T20:35:24.485Z,102477.64
2019-06-27T20:37:53.785Z,102478.71
2019-06-27T20:40:24.673Z,102481.23
2019-06-27T20:42:53.591Z,102480.38
2019-06-27T20:45:23.440Z,102489.99
2019-06-27T20:47:53.164Z,102485.84
2019-06-27T20:50:22.013Z,102474.77
2019-06-27T20:52:50.747Z,102482.66
2019-06-27T20:55:19.551Z,102484.52
2019-06-27T20:57:48.335Z,102484.66
2019-06-27T21:00:18.097Z,102488.76
2019-06-27T21:02:46.812Z,102493.12
2019-06-27T21:05:17.676Z,102501.54
2019-06-27T21:07:55.024Z,102498.25
2019-06-27T21:10:24.827Z,102489.69
2019-06-27T21:12:58.826Z,102488.59
2019-06-27T21:15:39.391Z,102494.39
2019-06-27T21:18:14.573Z,102495.05
2019-06-27T21:20:44.494Z,102490.30
2019-06-27T21:23:13.409Z,102490.89
2019-06-27T21:25:42.171Z,102486.50
2019-06-27T21:28:10.922Z,102493.12
2019-06-27T21:30:39.669Z,102493.16
2019-06-27T21:33:08.571Z,102501.24
2019-06-27T21:35:38.069Z,102499.94
2019-06-27T21:38:07.498Z,102495.14
2019-06-27T21:40:37.864Z,102488.71
2019-06-27T21:43:10.919Z,102497.28
2019-06-27T21:45:39.934Z,102496.34
2019-06-27T21:48:14.884Z,102495.17
2019-06-27T21:50:45.386Z,102497.17
2019-06-27T21:53:19.300Z,102497.74
2019-06-27T21:55:51.879Z,102498.80
2019-06-27T21:58:23.164Z,102495.92
2019-06-27T22:00:54.196Z,102491.94
2019-06-27T22:03:22.960Z,102491.10
2019-06-27T22:05:51.618Z,102486.52
2019-06-27T22:08:20.391Z,102479.73
2019-06-27T22:10:49.153Z,102483.30
2019-06-27T22:13:17.986Z,102479.02
2019-06-27T22:15:47.709Z,102473.53
2019-06-27T22:18:17.607Z,102469.90
2019-06-27T22:20:46.823Z,102476.98
2019-06-27T22:23:16.100Z,102474.86
2019-06-27T22:25:45.600Z,102468.05
2019-06-27T22:28:14.444Z,102470.96
2019-06-27T22:30:43.901Z,102473.16
2019-06-27T22:33:13.525Z,102464.60
2019-06-27T22:35:42.352Z,102464.88
2019-06-27T22:38:29.572Z,102458.28
2019-06-27T22:41:16.620Z,102458.28
2019-06-27T22:44:05.182Z,102458.28
2019-06-27T22:46:53.633Z,102459.15
2019-06-27T22:49:22.975Z,102454.83
2019-06-27T22:52:11.624Z,102451.61
2019-06-27T22:54:43.440Z,102450.58
2019-06-27T22:57:12.261Z,102453.05
2019-06-27T22:59:40.984Z,102445.36
2019-06-27T23:02:09.728Z,102452.73
2019-06-27T23:04:38.494Z,102456.83
2019-06-27T23:07:07.293Z,102450.52
2019-06-27T23:09:36.139Z,102454.30
2019-06-27T23:12:05.265Z,102451.88
2019-06-27T23:14:34.026Z,102444.75
2019-06-27T23:17:02.801Z,102444.68
2019-06-27T23:19:31.579Z,102443.05
2019-06-27T23:22:00.245Z,102444.01
2019-06-27T23:24:29.008Z,102433.14
2019-06-27T23:26:57.868Z,102437.53
2019-06-27T23:29:26.609Z,102434.08
2019-06-27T23:31:55.366Z,102439.65
2019-06-27T23:34:24.100Z,102439.91
2019-06-27T23:36:52.911Z,102444.11
2019-06-27T23:39:21.646Z,102441.99
2019-06-27T23:41:50.401Z,102436.66
2019-06-27T23:44:19.171Z,102437.60
2019-06-27T23:46:47.915Z,102442.25
2019-06-27T23:49:16.666Z,102437.30
2019-06-27T23:51:45.399Z,102433.97
2019-06-27T23:54:14.157Z,102437.42
2019-06-27T23:56:42.901Z,102433.82
2019-06-27T23:59:11.712Z,102434.21
